San Fernando Airport
SADF : now visible

Airfield :











YOU CAN JOIN US ON...

 
LOGIN :

Register | Disclaimer

   EN    FR    IT 

 









Legend :    VFR   Marginal VFR   IFR   Intensive IFR   Very Intensive IFR
Visi :
Ceiling :
>= 8 km
>= 3000ft
5 to 8 km
1000 to 3000 ft
1500m to 5 km
500 to 1000 ft
800 to 1500m
200 to 500 ft
< 800m
< 200 ft
Symbols :   Thunderstorms  Fog  Heavy snow  Heavy precipitations  Wind > 20 kt






- Airport Elevation : 10 ft
- IATA code : FDO


SADF - San Fernando

CURRENT METAR :
  • 041800Z 29008KT CAVOK 25/14 Q1010

EXPIRED METARs :
  • 041700Z 29010KT CAVOK 24/10 Q1011
  • 041600Z 32010KT CAVOK 23/11 Q1012

TAF TAF SADF
Valid from the 04 at 18:00 until the 05 at 18:00 UTC


041700Z 0418/0518 30010KT CAVOK TX26/0518Z TN16/0510Z
BECMG 0423/0501 02010KT
BECMG 0515/0517 34015KT



MET'MAP, your aeronautical weather chart ! - Copyright ORBIFLY December 2007 - Disclaimer

ORBIFLY MET'MAP TEAM :

Programming & Development : Alexandra Zaïnal
Concept & original design : Baudouin d'Aumeries
Assistance for programming : Marc-Olivier Méhu
Technical & hardware support : Manuel Goepfert

Contact : metmap@orbifly.com




SOURCES & CREDITS :

   NOAA       Earth
Advisory